sensor_id;sensor_type;location;lat;lon;timestamp;P1;durP1;ratioP1;P2;durP2;ratioP2
38312;SDS011;24114;52.260;6.714;2024-03-07T00:01:56;40.75;;;28.38;;
38312;SDS011;24114;52.260;6.714;2024-03-07T00:04:23;43.38;;;29.65;;
38312;SDS011;24114;52.260;6.714;2024-03-07T00:06:52;44.40;;;29.33;;
38312;SDS011;24114;52.260;6.714;2024-03-07T00:09:20;44.53;;;29.90;;
38312;SDS011;24114;52.260;6.714;2024-03-07T00:11:50;47.30;;;30.80;;
38312;SDS011;24114;52.260;6.714;2024-03-07T00:14:18;47.25;;;30.98;;
38312;SDS011;24114;52.260;6.714;2024-03-07T00:16:48;46.17;;;30.80;;
38312;SDS011;24114;52.260;6.714;2024-03-07T00:19:16;49.72;;;32.25;;
38312;SDS011;24114;52.260;6.714;2024-03-07T00:21:44;47.53;;;32.10;;
38312;SDS011;24114;52.260;6.714;2024-03-07T00:24:11;48.22;;;31.75;;
38312;SDS011;24114;52.260;6.714;2024-03-07T00:26:40;52.15;;;33.13;;
38312;SDS011;24114;52.260;6.714;2024-03-07T00:29:08;50.30;;;32.60;;
38312;SDS011;24114;52.260;6.714;2024-03-07T00:31:37;44.92;;;31.05;;
38312;SDS011;24114;52.260;6.714;2024-03-07T00:34:06;47.35;;;31.67;;
38312;SDS011;24114;52.260;6.714;2024-03-07T00:36:44;49.55;;;32.63;;
38312;SDS011;24114;52.260;6.714;2024-03-07T00:39:12;48.08;;;31.67;;
38312;SDS011;24114;52.260;6.714;2024-03-07T00:41:40;49.20;;;32.38;;
38312;SDS011;24114;52.260;6.714;2024-03-07T00:44:08;54.85;;;34.45;;
38312;SDS011;24114;52.260;6.714;2024-03-07T00:46:36;48.92;;;33.10;;
38312;SDS011;24114;52.260;6.714;2024-03-07T00:49:06;51.50;;;36.03;;
38312;SDS011;24114;52.260;6.714;2024-03-07T00:51:33;50.50;;;34.10;;
38312;SDS011;24114;52.260;6.714;2024-03-07T00:54:05;47.92;;;33.85;;
38312;SDS011;24114;52.260;6.714;2024-03-07T00:56:33;50.60;;;35.65;;
38312;SDS011;24114;52.260;6.714;2024-03-07T00:59:02;53.73;;;36.43;;
38312;SDS011;24114;52.260;6.714;2024-03-07T01:01:30;47.85;;;33.95;;
38312;SDS011;24114;52.260;6.714;2024-03-07T01:03:59;51.90;;;34.97;;
38312;SDS011;24114;52.260;6.714;2024-03-07T01:06:28;55.55;;;36.35;;
38312;SDS011;24114;52.260;6.714;2024-03-07T01:08:56;55.45;;;38.08;;
38312;SDS011;24114;52.260;6.714;2024-03-07T01:11:24;51.87;;;35.73;;
38312;SDS011;24114;52.260;6.714;2024-03-07T01:13:52;51.03;;;36.22;;
38312;SDS011;24114;52.260;6.714;2024-03-07T01:16:19;54.20;;;37.05;;
38312;SDS011;24114;52.260;6.714;2024-03-07T01:18:47;50.20;;;35.07;;
38312;SDS011;24114;52.260;6.714;2024-03-07T01:21:15;51.90;;;35.95;;
38312;SDS011;24114;52.260;6.714;2024-03-07T01:23:44;49.50;;;34.33;;
38312;SDS011;24114;52.260;6.714;2024-03-07T01:26:12;49.07;;;34.13;;
38312;SDS011;24114;52.260;6.714;2024-03-07T01:28:40;49.78;;;34.20;;
38312;SDS011;24114;52.260;6.714;2024-03-07T01:31:08;46.75;;;32.90;;
38312;SDS011;24114;52.260;6.714;2024-03-07T01:33:36;49.92;;;33.50;;
38312;SDS011;24114;52.260;6.714;2024-03-07T01:36:04;48.20;;;32.50;;
38312;SDS011;24114;52.260;6.714;2024-03-07T01:38:32;49.55;;;34.08;;
38312;SDS011;24114;52.260;6.714;2024-03-07T01:41:02;45.67;;;32.08;;
38312;SDS011;24114;52.260;6.714;2024-03-07T01:43:29;48.33;;;32.05;;
38312;SDS011;24114;52.260;6.714;2024-03-07T01:45:58;44.25;;;30.73;;
38312;SDS011;24114;52.260;6.714;2024-03-07T01:48:26;45.72;;;31.35;;
38312;SDS011;24114;52.260;6.714;2024-03-07T01:50:55;44.10;;;31.33;;
38312;SDS011;24114;52.260;6.714;2024-03-07T01:53:24;45.80;;;31.50;;
38312;SDS011;24114;52.260;6.714;2024-03-07T01:55:53;42.70;;;30.02;;
38312;SDS011;24114;52.260;6.714;2024-03-07T01:58:22;43.55;;;31.33;;
38312;SDS011;24114;52.260;6.714;2024-03-07T02:00:51;42.38;;;29.27;;
38312;SDS011;24114;52.260;6.714;2024-03-07T02:03:19;41.50;;;29.95;;
38312;SDS011;24114;52.260;6.714;2024-03-07T02:05:47;43.38;;;30.80;;
38312;SDS011;24114;52.260;6.714;2024-03-07T02:08:15;43.50;;;30.08;;
38312;SDS011;24114;52.260;6.714;2024-03-07T02:10:43;40.83;;;28.92;;
38312;SDS011;24114;52.260;6.714;2024-03-07T02:13:11;41.70;;;29.88;;
38312;SDS011;24114;52.260;6.714;2024-03-07T02:15:40;41.25;;;29.23;;
38312;SDS011;24114;52.260;6.714;2024-03-07T02:18:09;43.05;;;30.10;;
38312;SDS011;24114;52.260;6.714;2024-03-07T02:20:37;45.10;;;29.02;;
38312;SDS011;24114;52.260;6.714;2024-03-07T02:23:10;43.38;;;28.90;;
38312;SDS011;24114;52.260;6.714;2024-03-07T02:25:38;40.60;;;28.88;;
38312;SDS011;24114;52.260;6.714;2024-03-07T02:28:05;39.53;;;29.38;;
38312;SDS011;24114;52.260;6.714;2024-03-07T02:30:33;42.70;;;29.42;;
38312;SDS011;24114;52.260;6.714;2024-03-07T02:33:01;43.70;;;29.70;;
38312;SDS011;24114;52.260;6.714;2024-03-07T02:35:33;43.95;;;29.02;;
38312;SDS011;24114;52.260;6.714;2024-03-07T02:38:04;39.50;;;28.77;;
38312;SDS011;24114;52.260;6.714;2024-03-07T02:40:32;41.77;;;29.93;;
38312;SDS011;24114;52.260;6.714;2024-03-07T02:43:00;40.40;;;28.35;;
38312;SDS011;24114;52.260;6.714;2024-03-07T02:45:29;40.05;;;28.40;;
38312;SDS011;24114;52.260;6.714;2024-03-07T02:47:57;42.97;;;28.60;;
38312;SDS011;24114;52.260;6.714;2024-03-07T02:50:25;42.40;;;29.35;;
38312;SDS011;24114;52.260;6.714;2024-03-07T02:52:53;40.97;;;29.35;;
38312;SDS011;24114;52.260;6.714;2024-03-07T02:55:22;39.78;;;28.10;;
38312;SDS011;24114;52.260;6.714;2024-03-07T02:57:50;38.22;;;27.77;;
38312;SDS011;24114;52.260;6.714;2024-03-07T03:00:18;38.13;;;26.98;;
38312;SDS011;24114;52.260;6.714;2024-03-07T03:02:47;38.42;;;28.08;;
38312;SDS011;24114;52.260;6.714;2024-03-07T03:05:16;39.57;;;28.50;;
38312;SDS011;24114;52.260;6.714;2024-03-07T03:07:45;40.90;;;28.73;;
38312;SDS011;24114;52.260;6.714;2024-03-07T03:10:20;40.45;;;28.27;;
38312;SDS011;24114;52.260;6.714;2024-03-07T03:12:53;41.90;;;29.08;;
38312;SDS011;24114;52.260;6.714;2024-03-07T03:15:21;45.33;;;29.50;;
38312;SDS011;24114;52.260;6.714;2024-03-07T03:17:49;45.75;;;30.45;;
38312;SDS011;24114;52.260;6.714;2024-03-07T03:20:18;41.72;;;29.88;;
38312;SDS011;24114;52.260;6.714;2024-03-07T03:22:52;41.58;;;28.85;;
38312;SDS011;24114;52.260;6.714;2024-03-07T03:25:40;42.03;;;29.27;;
38312;SDS011;24114;52.260;6.714;2024-03-07T03:28:09;43.40;;;29.73;;
38312;SDS011;24114;52.260;6.714;2024-03-07T03:30:37;43.05;;;29.48;;
38312;SDS011;24114;52.260;6.714;2024-03-07T03:33:05;42.50;;;29.88;;
38312;SDS011;24114;52.260;6.714;2024-03-07T03:35:33;42.05;;;28.98;;
38312;SDS011;24114;52.260;6.714;2024-03-07T03:38:01;41.28;;;29.77;;
38312;SDS011;24114;52.260;6.714;2024-03-07T03:40:29;41.47;;;28.90;;
38312;SDS011;24114;52.260;6.714;2024-03-07T03:42:57;38.83;;;27.67;;
38312;SDS011;24114;52.260;6.714;2024-03-07T03:45:27;40.53;;;29.13;;
38312;SDS011;24114;52.260;6.714;2024-03-07T03:47:54;38.53;;;27.93;;
38312;SDS011;24114;52.260;6.714;2024-03-07T03:50:22;38.45;;;28.05;;
38312;SDS011;24114;52.260;6.714;2024-03-07T03:52:50;38.28;;;27.13;;
38312;SDS011;24114;52.260;6.714;2024-03-07T03:55:18;37.58;;;27.42;;
38312;SDS011;24114;52.260;6.714;2024-03-07T03:57:47;37.40;;;26.75;;
38312;SDS011;24114;52.260;6.714;2024-03-07T04:00:16;41.13;;;27.98;;
38312;SDS011;24114;52.260;6.714;2024-03-07T04:02:46;36.53;;;26.90;;
38312;SDS011;24114;52.260;6.714;2024-03-07T04:05:16;37.95;;;27.25;;
38312;SDS011;24114;52.260;6.714;2024-03-07T04:07:45;34.95;;;26.27;;
38312;SDS011;24114;52.260;6.714;2024-03-07T04:10:14;34.97;;;25.23;;
38312;SDS011;24114;52.260;6.714;2024-03-07T04:12:44;36.13;;;25.13;;
38312;SDS011;24114;52.260;6.714;2024-03-07T04:15:12;35.35;;;26.00;;
38312;SDS011;24114;52.260;6.714;2024-03-07T04:17:44;34.97;;;25.38;;
38312;SDS011;24114;52.260;6.714;2024-03-07T04:20:14;34.55;;;25.60;;
38312;SDS011;24114;52.260;6.714;2024-03-07T04:22:44;34.70;;;25.80;;
38312;SDS011;24114;52.260;6.714;2024-03-07T04:25:12;33.90;;;25.38;;
38312;SDS011;24114;52.260;6.714;2024-03-07T04:27:41;33.95;;;24.75;;
38312;SDS011;24114;52.260;6.714;2024-03-07T04:30:09;33.23;;;25.53;;
38312;SDS011;24114;52.260;6.714;2024-03-07T04:32:36;34.17;;;24.67;;
38312;SDS011;24114;52.260;6.714;2024-03-07T04:35:05;33.10;;;24.85;;
38312;SDS011;24114;52.260;6.714;2024-03-07T04:37:39;33.70;;;25.35;;
38312;SDS011;24114;52.260;6.714;2024-03-07T04:40:07;33.78;;;25.20;;
38312;SDS011;24114;52.260;6.714;2024-03-07T04:42:44;34.00;;;25.13;;
38312;SDS011;24114;52.260;6.714;2024-03-07T04:45:13;32.05;;;24.25;;
38312;SDS011;24114;52.260;6.714;2024-03-07T04:47:41;37.00;;;25.60;;
38312;SDS011;24114;52.260;6.714;2024-03-07T04:50:10;34.22;;;25.15;;
38312;SDS011;24114;52.260;6.714;2024-03-07T04:52:40;32.85;;;24.05;;
38312;SDS011;24114;52.260;6.714;2024-03-07T04:55:08;32.55;;;23.60;;
38312;SDS011;24114;52.260;6.714;2024-03-07T04:57:37;31.85;;;24.02;;
38312;SDS011;24114;52.260;6.714;2024-03-07T05:00:07;34.35;;;24.77;;
38312;SDS011;24114;52.260;6.714;2024-03-07T05:02:39;30.77;;;23.73;;
38312;SDS011;24114;52.260;6.714;2024-03-07T05:05:07;30.40;;;23.08;;
38312;SDS011;24114;52.260;6.714;2024-03-07T05:07:35;30.90;;;23.40;;
38312;SDS011;24114;52.260;6.714;2024-03-07T05:10:05;29.25;;;22.42;;
38312;SDS011;24114;52.260;6.714;2024-03-07T05:12:35;31.67;;;23.70;;
38312;SDS011;24114;52.260;6.714;2024-03-07T05:15:04;29.95;;;23.55;;
38312;SDS011;24114;52.260;6.714;2024-03-07T05:17:36;30.83;;;23.30;;
38312;SDS011;24114;52.260;6.714;2024-03-07T05:20:06;31.25;;;23.50;;
38312;SDS011;24114;52.260;6.714;2024-03-07T05:22:37;32.58;;;23.63;;
38312;SDS011;24114;52.260;6.714;2024-03-07T05:25:08;28.40;;;22.58;;
38312;SDS011;24114;52.260;6.714;2024-03-07T05:27:36;29.95;;;22.80;;
38312;SDS011;24114;52.260;6.714;2024-03-07T05:30:05;32.77;;;23.17;;
38312;SDS011;24114;52.260;6.714;2024-03-07T05:32:36;29.60;;;23.05;;
38312;SDS011;24114;52.260;6.714;2024-03-07T05:35:05;29.85;;;22.85;;
38312;SDS011;24114;52.260;6.714;2024-03-07T05:37:33;28.77;;;21.80;;
38312;SDS011;24114;52.260;6.714;2024-03-07T05:40:01;29.63;;;22.23;;
38312;SDS011;24114;52.260;6.714;2024-03-07T05:42:31;28.55;;;22.05;;
38312;SDS011;24114;52.260;6.714;2024-03-07T05:44:59;29.95;;;22.42;;
38312;SDS011;24114;52.260;6.714;2024-03-07T05:47:27;30.65;;;22.52;;
38312;SDS011;24114;52.260;6.714;2024-03-07T05:49:55;29.58;;;22.55;;
38312;SDS011;24114;52.260;6.714;2024-03-07T05:52:23;30.10;;;22.13;;
38312;SDS011;24114;52.260;6.714;2024-03-07T05:54:51;31.00;;;22.48;;
38312;SDS011;24114;52.260;6.714;2024-03-07T05:57:18;28.95;;;21.95;;
38312;SDS011;24114;52.260;6.714;2024-03-07T05:59:47;30.48;;;21.90;;
38312;SDS011;24114;52.260;6.714;2024-03-07T06:02:15;28.55;;;22.08;;
38312;SDS011;24114;52.260;6.714;2024-03-07T06:04:43;28.90;;;22.13;;
38312;SDS011;24114;52.260;6.714;2024-03-07T06:07:11;28.15;;;21.52;;
38312;SDS011;24114;52.260;6.714;2024-03-07T06:09:39;28.85;;;21.35;;
38312;SDS011;24114;52.260;6.714;2024-03-07T06:12:07;29.55;;;22.10;;
38312;SDS011;24114;52.260;6.714;2024-03-07T06:14:49;29.05;;;21.48;;
38312;SDS011;24114;52.260;6.714;2024-03-07T06:17:17;29.38;;;22.00;;
38312;SDS011;24114;52.260;6.714;2024-03-07T06:19:48;26.58;;;20.95;;
38312;SDS011;24114;52.260;6.714;2024-03-07T06:22:16;26.77;;;20.80;;
38312;SDS011;24114;52.260;6.714;2024-03-07T06:24:44;26.45;;;20.63;;
38312;SDS011;24114;52.260;6.714;2024-03-07T06:27:11;28.00;;;21.30;;
38312;SDS011;24114;52.260;6.714;2024-03-07T06:29:43;26.50;;;20.57;;
38312;SDS011;24114;52.260;6.714;2024-03-07T06:32:12;26.73;;;21.23;;
38312;SDS011;24114;52.260;6.714;2024-03-07T06:34:39;28.65;;;20.73;;
38312;SDS011;24114;52.260;6.714;2024-03-07T06:37:07;28.25;;;20.85;;
38312;SDS011;24114;52.260;6.714;2024-03-07T06:39:35;27.45;;;20.48;;
38312;SDS011;24114;52.260;6.714;2024-03-07T06:42:03;24.90;;;19.83;;
38312;SDS011;24114;52.260;6.714;2024-03-07T06:44:32;26.65;;;20.33;;
38312;SDS011;24114;52.260;6.714;2024-03-07T06:47:00;26.83;;;20.77;;
38312;SDS011;24114;52.260;6.714;2024-03-07T06:49:29;26.00;;;19.77;;
38312;SDS011;24114;52.260;6.714;2024-03-07T06:51:57;24.98;;;19.38;;
38312;SDS011;24114;52.260;6.714;2024-03-07T06:54:26;25.23;;;19.48;;
38312;SDS011;24114;52.260;6.714;2024-03-07T06:56:53;24.37;;;19.00;;
38312;SDS011;24114;52.260;6.714;2024-03-07T06:59:21;26.52;;;19.90;;
38312;SDS011;24114;52.260;6.714;2024-03-07T07:01:49;27.55;;;19.70;;
38312;SDS011;24114;52.260;6.714;2024-03-07T07:04:17;25.20;;;19.20;;
38312;SDS011;24114;52.260;6.714;2024-03-07T07:06:47;26.23;;;19.33;;
38312;SDS011;24114;52.260;6.714;2024-03-07T07:09:15;25.13;;;19.15;;
38312;SDS011;24114;52.260;6.714;2024-03-07T07:11:45;23.80;;;18.50;;
38312;SDS011;24114;52.260;6.714;2024-03-07T07:14:13;23.90;;;18.80;;
38312;SDS011;24114;52.260;6.714;2024-03-07T07:16:41;24.35;;;18.38;;
38312;SDS011;24114;52.260;6.714;2024-03-07T07:19:12;23.55;;;18.40;;
38312;SDS011;24114;52.260;6.714;2024-03-07T07:21:40;24.55;;;18.67;;
38312;SDS011;24114;52.260;6.714;2024-03-07T07:24:09;23.15;;;17.30;;
38312;SDS011;24114;52.260;6.714;2024-03-07T07:26:38;23.58;;;18.35;;
38312;SDS011;24114;52.260;6.714;2024-03-07T07:29:06;23.87;;;18.37;;
38312;SDS011;24114;52.260;6.714;2024-03-07T07:31:34;23.48;;;17.77;;
38312;SDS011;24114;52.260;6.714;2024-03-07T07:34:02;23.40;;;17.75;;
38312;SDS011;24114;52.260;6.714;2024-03-07T07:36:30;22.60;;;17.53;;
38312;SDS011;24114;52.260;6.714;2024-03-07T07:38:58;21.88;;;17.67;;
38312;SDS011;24114;52.260;6.714;2024-03-07T07:41:27;22.55;;;17.15;;
38312;SDS011;24114;52.260;6.714;2024-03-07T07:43:57;21.70;;;17.58;;
38312;SDS011;24114;52.260;6.714;2024-03-07T07:46:25;22.65;;;17.33;;
38312;SDS011;24114;52.260;6.714;2024-03-07T07:48:52;21.65;;;17.45;;
38312;SDS011;24114;52.260;6.714;2024-03-07T07:51:22;22.27;;;16.10;;
38312;SDS011;24114;52.260;6.714;2024-03-07T07:53:51;21.55;;;17.15;;
38312;SDS011;24114;52.260;6.714;2024-03-07T07:56:20;21.50;;;16.58;;
38312;SDS011;24114;52.260;6.714;2024-03-07T07:58:52;21.52;;;16.60;;
38312;SDS011;24114;52.260;6.714;2024-03-07T08:01:20;22.58;;;16.80;;
38312;SDS011;24114;52.260;6.714;2024-03-07T08:03:48;20.15;;;16.20;;
38312;SDS011;24114;52.260;6.714;2024-03-07T08:06:16;20.63;;;16.88;;
38312;SDS011;24114;52.260;6.714;2024-03-07T08:08:44;21.70;;;16.80;;
38312;SDS011;24114;52.260;6.714;2024-03-07T08:11:12;20.17;;;16.10;;
38312;SDS011;24114;52.260;6.714;2024-03-07T08:13:41;19.85;;;15.43;;
38312;SDS011;24114;52.260;6.714;2024-03-07T08:16:11;17.83;;;15.17;;
38312;SDS011;24114;52.260;6.714;2024-03-07T08:18:38;20.20;;;16.23;;
38312;SDS011;24114;52.260;6.714;2024-03-07T08:21:06;20.92;;;16.00;;
38312;SDS011;24114;52.260;6.714;2024-03-07T08:23:37;19.00;;;15.65;;
38312;SDS011;24114;52.260;6.714;2024-03-07T08:26:06;19.47;;;15.23;;
38312;SDS011;24114;52.260;6.714;2024-03-07T08:28:33;20.77;;;15.18;;
38312;SDS011;24114;52.260;6.714;2024-03-07T08:31:01;19.40;;;15.68;;
38312;SDS011;24114;52.260;6.714;2024-03-07T08:33:32;20.08;;;15.55;;
38312;SDS011;24114;52.260;6.714;2024-03-07T08:36:00;20.23;;;15.37;;
38312;SDS011;24114;52.260;6.714;2024-03-07T08:38:28;19.10;;;15.70;;
38312;SDS011;24114;52.260;6.714;2024-03-07T08:40:56;17.58;;;14.68;;
38312;SDS011;24114;52.260;6.714;2024-03-07T08:43:24;19.73;;;15.50;;
38312;SDS011;24114;52.260;6.714;2024-03-07T08:45:54;19.27;;;15.65;;
38312;SDS011;24114;52.260;6.714;2024-03-07T08:48:21;20.15;;;15.18;;
38312;SDS011;24114;52.260;6.714;2024-03-07T08:50:51;19.20;;;15.60;;
38312;SDS011;24114;52.260;6.714;2024-03-07T08:53:19;19.27;;;15.23;;
38312;SDS011;24114;52.260;6.714;2024-03-07T08:55:47;19.80;;;15.23;;
38312;SDS011;24114;52.260;6.714;2024-03-07T08:58:14;20.83;;;16.45;;
38312;SDS011;24114;52.260;6.714;2024-03-07T09:00:42;19.80;;;16.02;;
38312;SDS011;24114;52.260;6.714;2024-03-07T09:03:12;19.17;;;14.75;;
38312;SDS011;24114;52.260;6.714;2024-03-07T09:05:39;19.20;;;15.45;;
38312;SDS011;24114;52.260;6.714;2024-03-07T09:08:09;21.88;;;16.05;;
38312;SDS011;24114;52.260;6.714;2024-03-07T09:10:38;21.40;;;17.10;;
38312;SDS011;24114;52.260;6.714;2024-03-07T09:13:09;20.60;;;16.30;;
38312;SDS011;24114;52.260;6.714;2024-03-07T09:15:37;18.88;;;15.68;;
38312;SDS011;24114;52.260;6.714;2024-03-07T09:18:05;20.25;;;15.93;;
38312;SDS011;24114;52.260;6.714;2024-03-07T09:20:35;22.25;;;17.23;;
38312;SDS011;24114;52.260;6.714;2024-03-07T09:23:03;20.33;;;16.67;;
38312;SDS011;24114;52.260;6.714;2024-03-07T09:25:33;19.43;;;16.07;;
38312;SDS011;24114;52.260;6.714;2024-03-07T09:28:01;19.63;;;16.30;;
38312;SDS011;24114;52.260;6.714;2024-03-07T09:30:29;23.85;;;18.42;;
38312;SDS011;24114;52.260;6.714;2024-03-07T09:32:57;21.02;;;17.10;;
38312;SDS011;24114;52.260;6.714;2024-03-07T09:35:25;19.98;;;16.63;;
38312;SDS011;24114;52.260;6.714;2024-03-07T09:37:53;21.88;;;18.35;;
38312;SDS011;24114;52.260;6.714;2024-03-07T09:40:22;20.27;;;16.80;;
38312;SDS011;24114;52.260;6.714;2024-03-07T09:42:55;22.27;;;18.27;;
38312;SDS011;24114;52.260;6.714;2024-03-07T09:45:28;22.38;;;17.83;;
38312;SDS011;24114;52.260;6.714;2024-03-07T09:47:56;20.45;;;17.00;;
38312;SDS011;24114;52.260;6.714;2024-03-07T09:50:25;22.77;;;17.60;;
38312;SDS011;24114;52.260;6.714;2024-03-07T09:52:54;22.20;;;18.00;;
38312;SDS011;24114;52.260;6.714;2024-03-07T09:55:22;20.63;;;16.45;;
38312;SDS011;24114;52.260;6.714;2024-03-07T09:57:54;22.05;;;17.08;;
38312;SDS011;24114;52.260;6.714;2024-03-07T10:00:23;20.30;;;16.38;;
38312;SDS011;24114;52.260;6.714;2024-03-07T10:02:54;21.83;;;17.48;;
38312;SDS011;24114;52.260;6.714;2024-03-07T10:05:26;19.57;;;16.60;;
38312;SDS011;24114;52.260;6.714;2024-03-07T10:07:56;22.02;;;17.60;;
38312;SDS011;24114;52.260;6.714;2024-03-07T10:10:24;22.13;;;17.80;;
38312;SDS011;24114;52.260;6.714;2024-03-07T10:12:52;21.83;;;17.70;;
38312;SDS011;24114;52.260;6.714;2024-03-07T10:15:22;20.15;;;16.63;;
38312;SDS011;24114;52.260;6.714;2024-03-07T10:17:55;23.23;;;18.63;;
38312;SDS011;24114;52.260;6.714;2024-03-07T10:20:23;22.52;;;18.15;;
38312;SDS011;24114;52.260;6.714;2024-03-07T10:22:51;21.88;;;18.00;;
38312;SDS011;24114;52.260;6.714;2024-03-07T10:25:20;22.95;;;18.70;;
38312;SDS011;24114;52.260;6.714;2024-03-07T10:27:52;22.33;;;18.02;;
38312;SDS011;24114;52.260;6.714;2024-03-07T10:30:22;21.90;;;17.77;;
38312;SDS011;24114;52.260;6.714;2024-03-07T10:32:52;23.97;;;18.27;;
38312;SDS011;24114;52.260;6.714;2024-03-07T10:35:21;22.38;;;17.48;;
38312;SDS011;24114;52.260;6.714;2024-03-07T10:38:33;21.27;;;17.25;;
38312;SDS011;24114;52.260;6.714;2024-03-07T10:41:01;20.83;;;16.87;;
38312;SDS011;24114;52.260;6.714;2024-03-07T10:43:30;22.97;;;18.23;;
38312;SDS011;24114;52.260;6.714;2024-03-07T10:47:38;21.63;;;17.55;;
38312;SDS011;24114;52.260;6.714;2024-03-07T10:50:08;19.35;;;16.88;;
38312;SDS011;24114;52.260;6.714;2024-03-07T10:52:43;21.42;;;17.23;;
38312;SDS011;24114;52.260;6.714;2024-03-07T10:55:19;22.13;;;17.88;;
38312;SDS011;24114;52.260;6.714;2024-03-07T10:57:55;20.20;;;16.47;;
38312;SDS011;24114;52.260;6.714;2024-03-07T11:00:26;21.13;;;17.20;;
38312;SDS011;24114;52.260;6.714;2024-03-07T11:03:04;20.25;;;16.13;;
38312;SDS011;24114;52.260;6.714;2024-03-07T11:05:34;20.20;;;16.83;;
38312;SDS011;24114;52.260;6.714;2024-03-07T11:08:03;21.05;;;17.58;;
38312;SDS011;24114;52.260;6.714;2024-03-07T11:10:38;19.48;;;16.10;;
38312;SDS011;24114;52.260;6.714;2024-03-07T11:13:07;19.52;;;15.45;;
38312;SDS011;24114;52.260;6.714;2024-03-07T11:15:39;19.92;;;16.30;;
38312;SDS011;24114;52.260;6.714;2024-03-07T11:18:09;18.55;;;15.48;;
38312;SDS011;24114;52.260;6.714;2024-03-07T11:20:39;19.10;;;15.98;;
38312;SDS011;24114;52.260;6.714;2024-03-07T11:23:24;19.25;;;15.40;;
38312;SDS011;24114;52.260;6.714;2024-03-07T11:25:55;17.02;;;14.70;;
38312;SDS011;24114;52.260;6.714;2024-03-07T11:28:30;18.23;;;14.88;;
38312;SDS011;24114;52.260;6.714;2024-03-07T11:31:08;16.23;;;13.73;;
38312;SDS011;24114;52.260;6.714;2024-03-07T11:33:40;16.43;;;14.00;;
38312;SDS011;24114;52.260;6.714;2024-03-07T11:36:10;16.97;;;14.73;;
38312;SDS011;24114;52.260;6.714;2024-03-07T11:38:44;15.98;;;13.80;;
38312;SDS011;24114;52.260;6.714;2024-03-07T11:41:12;17.23;;;14.85;;
38312;SDS011;24114;52.260;6.714;2024-03-07T11:43:41;17.30;;;14.63;;
38312;SDS011;24114;52.260;6.714;2024-03-07T11:46:09;17.30;;;15.13;;
38312;SDS011;24114;52.260;6.714;2024-03-07T11:48:45;17.75;;;14.75;;
38312;SDS011;24114;52.260;6.714;2024-03-07T11:51:14;17.05;;;14.85;;
38312;SDS011;24114;52.260;6.714;2024-03-07T11:53:47;18.30;;;15.20;;
38312;SDS011;24114;52.260;6.714;2024-03-07T11:56:18;17.65;;;15.40;;
38312;SDS011;24114;52.260;6.714;2024-03-07T11:58:45;20.83;;;17.38;;
38312;SDS011;24114;52.260;6.714;2024-03-07T12:01:20;19.92;;;16.70;;
38312;SDS011;24114;52.260;6.714;2024-03-07T12:03:53;19.08;;;15.55;;
38312;SDS011;24114;52.260;6.714;2024-03-07T12:06:23;20.48;;;16.88;;
38312;SDS011;24114;52.260;6.714;2024-03-07T12:08:51;21.53;;;17.83;;
38312;SDS011;24114;52.260;6.714;2024-03-07T12:11:19;21.60;;;17.37;;
38312;SDS011;24114;52.260;6.714;2024-03-07T12:13:47;19.83;;;16.67;;
38312;SDS011;24114;52.260;6.714;2024-03-07T12:16:15;18.93;;;15.80;;
38312;SDS011;24114;52.260;6.714;2024-03-07T12:18:43;19.80;;;15.27;;
38312;SDS011;24114;52.260;6.714;2024-03-07T12:21:12;18.73;;;15.57;;
38312;SDS011;24114;52.260;6.714;2024-03-07T12:23:41;19.27;;;15.38;;
38312;SDS011;24114;52.260;6.714;2024-03-07T12:26:09;19.80;;;16.63;;
38312;SDS011;24114;52.260;6.714;2024-03-07T12:28:43;19.15;;;15.70;;
38312;SDS011;24114;52.260;6.714;2024-03-07T12:31:13;20.10;;;15.90;;
38312;SDS011;24114;52.260;6.714;2024-03-07T12:33:43;18.50;;;14.70;;
38312;SDS011;24114;52.260;6.714;2024-03-07T12:36:19;20.13;;;15.20;;
38312;SDS011;24114;52.260;6.714;2024-03-07T12:38:52;19.60;;;15.98;;
38312;SDS011;24114;52.260;6.714;2024-03-07T12:41:21;20.20;;;15.65;;
38312;SDS011;24114;52.260;6.714;2024-03-07T12:43:50;19.88;;;15.75;;
38312;SDS011;24114;52.260;6.714;2024-03-07T12:46:18;17.50;;;14.77;;
38312;SDS011;24114;52.260;6.714;2024-03-07T12:48:45;19.33;;;14.77;;
38312;SDS011;24114;52.260;6.714;2024-03-07T12:51:16;19.23;;;15.27;;
38312;SDS011;24114;52.260;6.714;2024-03-07T12:53:47;20.85;;;15.57;;
38312;SDS011;24114;52.260;6.714;2024-03-07T12:56:15;20.45;;;15.95;;
38312;SDS011;24114;52.260;6.714;2024-03-07T12:58:46;21.63;;;16.08;;
38312;SDS011;24114;52.260;6.714;2024-03-07T13:01:14;21.38;;;16.52;;
38312;SDS011;24114;52.260;6.714;2024-03-07T13:03:44;22.65;;;17.00;;
38312;SDS011;24114;52.260;6.714;2024-03-07T13:06:14;19.33;;;15.03;;
38312;SDS011;24114;52.260;6.714;2024-03-07T13:08:45;21.50;;;16.02;;
38312;SDS011;24114;52.260;6.714;2024-03-07T13:11:15;22.50;;;16.55;;
38312;SDS011;24114;52.260;6.714;2024-03-07T13:13:43;20.38;;;15.32;;
38312;SDS011;24114;52.260;6.714;2024-03-07T13:16:10;20.20;;;15.80;;
38312;SDS011;24114;52.260;6.714;2024-03-07T13:18:38;20.88;;;15.93;;
38312;SDS011;24114;52.260;6.714;2024-03-07T13:21:06;20.55;;;16.00;;
38312;SDS011;24114;52.260;6.714;2024-03-07T13:23:37;20.23;;;16.30;;
38312;SDS011;24114;52.260;6.714;2024-03-07T13:26:06;20.27;;;16.30;;
38312;SDS011;24114;52.260;6.714;2024-03-07T13:28:38;20.20;;;15.68;;
38312;SDS011;24114;52.260;6.714;2024-03-07T13:31:08;22.15;;;16.45;;
38312;SDS011;24114;52.260;6.714;2024-03-07T13:33:37;21.67;;;16.73;;
38312;SDS011;24114;52.260;6.714;2024-03-07T13:36:05;19.33;;;16.08;;
38312;SDS011;24114;52.260;6.714;2024-03-07T13:38:34;20.17;;;16.45;;
38312;SDS011;24114;52.260;6.714;2024-03-07T13:41:02;19.20;;;14.88;;
38312;SDS011;24114;52.260;6.714;2024-03-07T13:43:30;19.38;;;15.25;;
38312;SDS011;24114;52.260;6.714;2024-03-07T13:46:01;20.27;;;15.47;;
38312;SDS011;24114;52.260;6.714;2024-03-07T13:48:30;20.50;;;16.45;;
38312;SDS011;24114;52.260;6.714;2024-03-07T13:51:03;19.75;;;15.30;;
38312;SDS011;24114;52.260;6.714;2024-03-07T13:53:34;20.80;;;16.43;;
38312;SDS011;24114;52.260;6.714;2024-03-07T13:56:32;20.65;;;15.98;;
38312;SDS011;24114;52.260;6.714;2024-03-07T13:59:15;20.17;;;16.03;;
38312;SDS011;24114;52.260;6.714;2024-03-07T14:01:55;21.55;;;16.17;;
38312;SDS011;24114;52.260;6.714;2024-03-07T14:07:56;21.10;;;16.55;;
38312;SDS011;24114;52.260;6.714;2024-03-07T14:13:45;19.10;;;15.18;;
38312;SDS011;24114;52.260;6.714;2024-03-07T14:16:37;20.10;;;15.68;;
38312;SDS011;24114;52.260;6.714;2024-03-07T14:19:31;19.02;;;15.00;;
38312;SDS011;24114;52.260;6.714;2024-03-07T14:25:11;21.70;;;16.23;;
38312;SDS011;24114;52.260;6.714;2024-03-07T14:27:56;19.35;;;15.30;;
38312;SDS011;24114;52.260;6.714;2024-03-07T14:30:37;20.50;;;15.80;;
38312;SDS011;24114;52.260;6.714;2024-03-07T14:33:10;18.05;;;13.85;;
38312;SDS011;24114;52.260;6.714;2024-03-07T14:38:27;18.17;;;14.23;;
38312;SDS011;24114;52.260;6.714;2024-03-07T14:40:58;18.95;;;14.85;;
38312;SDS011;24114;52.260;6.714;2024-03-07T14:43:26;20.35;;;14.73;;
38312;SDS011;24114;52.260;6.714;2024-03-07T14:45:54;19.50;;;15.45;;
38312;SDS011;24114;52.260;6.714;2024-03-07T14:48:22;19.85;;;15.60;;
38312;SDS011;24114;52.260;6.714;2024-03-07T14:50:51;20.50;;;15.25;;